createdAt,value
2022-09-23T00:02:03.317Z,0
2022-09-23T00:03:12.486Z,0
2022-09-23T00:04:21.653Z,0
2022-09-23T00:05:30.830Z,0
2022-09-23T00:06:39.997Z,0
2022-09-23T00:07:49.189Z,0
2022-09-23T00:08:58.365Z,0
2022-09-23T00:10:06.542Z,0
2022-09-23T00:11:15.716Z,0
2022-09-23T00:12:24.987Z,0
2022-09-23T00:13:34.056Z,0
2022-09-23T00:14:43.240Z,0
2022-09-23T00:15:52.397Z,0
2022-09-23T00:17:01.587Z,0
2022-09-23T00:18:10.846Z,0
2022-09-23T00:19:19.919Z,0
2022-09-23T00:20:29.084Z,0
2022-09-23T00:21:38.317Z,0
2022-09-23T00:22:47.435Z,0
2022-09-23T00:23:56.672Z,0
2022-09-23T00:25:04.802Z,0
2022-09-23T00:26:13.983Z,0
2022-09-23T00:27:23.167Z,0
2022-09-23T00:28:32.318Z,0
2022-09-23T00:29:41.481Z,0
2022-09-23T00:30:50.690Z,0
2022-09-23T00:31:59.823Z,0
2022-09-23T00:33:09.070Z,0
2022-09-23T00:34:18.174Z,0
2022-09-23T00:35:27.348Z,0
2022-09-23T00:36:36.581Z,0
2022-09-23T00:37:45.688Z,0
2022-09-23T00:38:54.873Z,0
2022-09-23T00:41:12.258Z,0
2022-09-23T00:43:30.567Z,0
2022-09-23T00:44:39.730Z,0
2022-09-23T00:45:48.930Z,0
2022-09-23T00:46:58.117Z,0
2022-09-23T00:48:07.257Z,0
2022-09-23T00:49:16.477Z,0
2022-09-23T00:51:34.776Z,0
2022-09-23T00:52:43.067Z,0
2022-09-23T00:53:51.209Z,0
2022-09-23T00:55:00.328Z,0
2022-09-23T00:56:09.508Z,0
2022-09-23T00:57:18.671Z,0
2022-09-23T00:58:27.900Z,0
2022-09-23T00:59:37.136Z,0
2022-09-23T01:00:46.182Z,0
2022-09-23T01:01:55.446Z,0
2022-09-23T01:03:04.529Z,0
2022-09-23T01:04:13.718Z,0
2022-09-23T01:05:21.897Z,0
2022-09-23T01:06:30.120Z,0
2022-09-23T01:07:39.276Z,0
2022-09-23T01:08:48.429Z,0
2022-09-23T01:09:57.612Z,0
2022-09-23T01:11:06.780Z,0
2022-09-23T01:12:15.964Z,0
2022-09-23T01:13:25.142Z,0
2022-09-23T01:14:34.294Z,0
2022-09-23T01:15:43.475Z,0
2022-09-23T01:16:52.706Z,0
2022-09-23T01:18:01.808Z,0
2022-09-23T01:19:11.000Z,0
2022-09-23T01:20:20.152Z,0
2022-09-23T01:21:28.348Z,0
2022-09-23T01:22:37.551Z,0
2022-09-23T01:23:46.697Z,0
2022-09-23T01:24:55.953Z,0
2022-09-23T01:26:05.037Z,0
2022-09-23T01:27:14.230Z,0
2022-09-23T01:29:32.550Z,0
2022-09-23T01:30:40.747Z,0
2022-09-23T01:31:48.957Z,0
2022-09-23T01:32:58.123Z,0
2022-09-23T01:35:16.451Z,0
2022-09-23T01:36:25.648Z,0
2022-09-23T01:37:34.806Z,0
2022-09-23T01:38:44.028Z,0
2022-09-23T01:39:53.141Z,0
2022-09-23T01:41:02.333Z,0
2022-09-23T01:42:11.585Z,0
2022-09-23T01:43:20.658Z,0
2022-09-23T01:44:28.851Z,0
2022-09-23T01:45:38.024Z,0
2022-09-23T01:46:46.206Z,0
2022-09-23T01:47:55.402Z,0
2022-09-23T01:49:04.554Z,0
2022-09-23T01:50:13.761Z,0
2022-09-23T01:51:22.905Z,0
2022-09-23T01:52:32.079Z,0
2022-09-23T01:53:41.289Z,0
2022-09-23T01:54:50.423Z,0
2022-09-23T01:55:59.584Z,0
2022-09-23T01:57:08.837Z,0
2022-09-23T01:58:17.937Z,0
2022-09-23T01:59:27.113Z,0
2022-09-23T02:00:36.323Z,0
2022-09-23T02:01:44.483Z,0
2022-09-23T02:02:53.645Z,0
2022-09-23T02:04:02.806Z,0
2022-09-23T02:06:21.169Z,0
2022-09-23T02:07:30.334Z,0
2022-09-23T02:08:39.528Z,0
2022-09-23T02:09:48.692Z,0
2022-09-23T02:10:57.845Z,0
2022-09-23T02:12:07.029Z,0
2022-09-23T02:13:16.192Z,0
2022-09-23T02:14:25.409Z,0
2022-09-23T02:16:43.709Z,0
2022-09-23T02:17:51.916Z,0
2022-09-23T02:19:01.074Z,0
2022-09-23T02:20:10.252Z,0
2022-09-23T02:21:19.475Z,0
2022-09-23T02:22:27.606Z,0
2022-09-23T02:23:36.783Z,0
2022-09-23T02:24:45.961Z,0
2022-09-23T02:27:04.306Z,0
2022-09-23T02:28:12.505Z,0
2022-09-23T02:29:20.688Z,0
2022-09-23T02:31:39.031Z,0
2022-09-23T02:32:48.208Z,0
2022-09-23T02:33:57.380Z,0
2022-09-23T02:35:06.545Z,0
2022-09-23T02:36:15.767Z,0
2022-09-23T02:37:24.915Z,0
2022-09-23T02:38:34.058Z,0
2022-09-23T02:39:43.243Z,0
2022-09-23T02:40:52.413Z,0
2022-09-23T02:42:01.607Z,0
2022-09-23T02:43:10.754Z,0
2022-09-23T02:45:29.097Z,0
2022-09-23T02:47:46.467Z,0
2022-09-23T02:48:54.688Z,0
2022-09-23T02:50:02.859Z,0
2022-09-23T02:51:12.042Z,0
2022-09-23T02:52:21.191Z,0
2022-09-23T02:53:30.381Z,0
2022-09-23T02:54:39.529Z,0
2022-09-23T02:55:48.707Z,0
2022-09-23T02:56:57.918Z,0
2022-09-23T02:58:07.053Z,0
2022-09-23T02:59:16.233Z,0
2022-09-23T03:00:25.401Z,0
2022-09-23T03:01:33.598Z,0
2022-09-23T03:02:41.809Z,0
2022-09-23T03:03:50.958Z,0
2022-09-23T03:06:09.348Z,0
2022-09-23T03:07:18.483Z,0
2022-09-23T03:08:27.650Z,0
2022-09-23T03:09:36.849Z,0
2022-09-23T03:10:45.999Z,0
2022-09-23T03:11:55.173Z,0
2022-09-23T03:13:04.378Z,0
2022-09-23T03:14:13.525Z,0
2022-09-23T03:15:22.679Z,0
2022-09-23T03:16:31.858Z,0
2022-09-23T03:17:40.049Z,0
2022-09-23T03:18:49.224Z,0
2022-09-23T03:19:58.397Z,0
2022-09-23T03:21:07.578Z,0
2022-09-23T03:22:16.744Z,0
2022-09-23T03:23:25.924Z,0
2022-09-23T03:24:35.100Z,0
2022-09-23T03:25:44.316Z,0
2022-09-23T03:26:52.449Z,0
2022-09-23T03:28:00.644Z,0
2022-09-23T03:29:09.818Z,0
2022-09-23T03:30:18.990Z,0
2022-09-23T03:31:28.152Z,0
2022-09-23T03:32:37.377Z,0
2022-09-23T03:33:46.497Z,0
2022-09-23T03:34:55.707Z,0
2022-09-23T03:36:04.956Z,0
2022-09-23T03:37:14.074Z,0
2022-09-23T03:38:23.253Z,0
2022-09-23T03:39:32.368Z,0
2022-09-23T03:40:41.548Z,0
2022-09-23T03:41:50.810Z,0
2022-09-23T03:42:59.894Z,0
2022-09-23T03:44:08.088Z,0
2022-09-23T03:45:17.256Z,0
2022-09-23T03:46:26.413Z,0
2022-09-23T03:47:35.587Z,0
2022-09-23T03:48:44.761Z,0
2022-09-23T03:49:53.953Z,0
2022-09-23T03:51:03.140Z,0
2022-09-23T03:52:12.273Z,0
2022-09-23T03:53:21.462Z,0
2022-09-23T03:54:30.620Z,0
2022-09-23T03:55:39.796Z,0
2022-09-23T03:56:48.968Z,0
2022-09-23T03:57:58.180Z,0
2022-09-23T03:59:06.336Z,0
2022-09-23T04:00:15.502Z,0
2022-09-23T04:01:24.674Z,0
2022-09-23T04:02:32.868Z,0
2022-09-23T04:03:41.073Z,0
2022-09-23T04:04:50.235Z,0
2022-09-23T04:05:59.445Z,0
2022-09-23T04:07:08.611Z,0
2022-09-23T04:08:17.747Z,0
2022-09-23T04:09:26.912Z,0
2022-09-23T04:10:36.135Z,0
2022-09-23T04:11:45.302Z,0
2022-09-23T04:12:54.443Z,0
2022-09-23T04:14:03.612Z,0
2022-09-23T04:15:12.796Z,0
2022-09-23T04:16:21.964Z,0
2022-09-23T04:17:31.124Z,0
2022-09-23T04:18:39.320Z,0
2022-09-23T04:19:47.537Z,0
2022-09-23T04:20:55.710Z,0
2022-09-23T04:22:04.875Z,0
2022-09-23T04:23:14.038Z,0
2022-09-23T04:24:23.251Z,0
2022-09-23T04:25:32.393Z,0
2022-09-23T04:26:41.587Z,0
2022-09-23T04:27:50.731Z,0
2022-09-23T04:28:59.927Z,0
2022-09-23T04:30:09.103Z,0
2022-09-23T04:31:18.255Z,0
2022-09-23T04:32:27.424Z,0
2022-09-23T04:33:36.599Z,0
2022-09-23T04:34:45.798Z,0
2022-09-23T04:35:53.959Z,0
2022-09-23T04:37:03.151Z,0
2022-09-23T04:38:12.311Z,0
2022-09-23T04:39:21.486Z,0
2022-09-23T04:40:30.652Z,0
2022-09-23T04:41:39.871Z,0
2022-09-23T04:42:48.998Z,0
2022-09-23T04:43:58.218Z,0
2022-09-23T04:46:16.508Z,3
2022-09-23T04:47:25.684Z,3
2022-09-23T04:48:34.857Z,4
2022-09-23T04:49:44.043Z,0
2022-09-23T04:50:52.245Z,4
2022-09-23T04:52:01.421Z,4
2022-09-23T04:53:10.592Z,4
2022-09-23T04:54:19.738Z,9
2022-09-23T04:55:28.915Z,1
2022-09-23T04:56:38.082Z,5
2022-09-23T04:57:47.260Z,3
2022-09-23T04:58:56.431Z,3
2022-09-23T05:00:05.599Z,6
2022-09-23T05:01:14.773Z,19
2022-09-23T05:02:23.956Z,28
2022-09-23T05:03:33.127Z,9
2022-09-23T05:04:42.362Z,10
2022-09-23T05:05:50.493Z,26
2022-09-23T05:06:59.670Z,27
2022-09-23T05:08:08.836Z,32
2022-09-23T05:10:27.177Z,51
2022-09-23T05:11:36.406Z,60
2022-09-23T05:12:45.573Z,91
2022-09-23T05:13:54.729Z,93
2022-09-23T05:15:03.902Z,90
2022-09-23T05:16:13.049Z,112
2022-09-23T05:17:22.216Z,143
2022-09-23T05:18:31.391Z,153
2022-09-23T05:19:40.564Z,166
2022-09-23T05:20:49.738Z,180
2022-09-23T05:23:07.098Z,222
2022-09-23T05:24:16.269Z,228
2022-09-23T05:26:34.630Z,260
2022-09-23T05:27:42.816Z,285
2022-09-23T05:28:51.040Z,305
2022-09-23T05:30:00.196Z,342
2022-09-23T05:31:09.332Z,366
2022-09-23T05:32:18.547Z,391
2022-09-23T05:33:27.688Z,415
2022-09-23T05:34:36.857Z,461
2022-09-23T05:35:46.046Z,494
2022-09-23T05:36:55.202Z,519
2022-09-23T05:38:04.396Z,557
2022-09-23T05:39:13.552Z,590
2022-09-23T05:40:21.751Z,633
2022-09-23T05:41:29.954Z,662
2022-09-23T05:43:48.285Z,743
2022-09-23T05:44:57.465Z,785
2022-09-23T05:46:06.626Z,832
2022-09-23T05:48:24.984Z,892
2022-09-23T05:49:34.216Z,948
2022-09-23T05:51:52.522Z,1021
2022-09-23T05:53:01.666Z,1056
2022-09-23T05:54:10.836Z,1098
2022-09-23T05:55:20.021Z,1158
2022-09-23T05:56:28.339Z,1198
2022-09-23T05:58:45.624Z,1227
2022-09-23T05:59:54.764Z,1282
2022-09-23T06:01:04.024Z,1329
2022-09-23T06:02:13.114Z,1361
2022-09-23T06:03:22.345Z,1373
2022-09-23T06:05:40.617Z,726
2022-09-23T06:06:49.879Z,814
2022-09-23T06:07:59.042Z,942
2022-09-23T06:09:08.272Z,1168
2022-09-23T06:10:17.314Z,1453
2022-09-23T06:11:26.493Z,1229
2022-09-23T06:12:34.757Z,1051
2022-09-23T06:13:42.894Z,1132
2022-09-23T06:14:52.120Z,1332
2022-09-23T06:16:01.194Z,1205
2022-09-23T06:17:10.412Z,2675
2022-09-23T06:18:19.663Z,2108
2022-09-23T06:19:28.745Z,1731
2022-09-23T06:20:37.931Z,1622
2022-09-23T06:21:47.178Z,1945
2022-09-23T06:22:55.246Z,1643
2022-09-23T06:24:03.443Z,1972
2022-09-23T06:25:12.623Z,1781
2022-09-23T06:26:21.783Z,1963
2022-09-23T06:29:49.344Z,1508
2022-09-23T06:30:57.507Z,2481
2022-09-23T06:32:05.686Z,1286
2022-09-23T06:33:14.906Z,2010
2022-09-23T06:34:24.034Z,1950
2022-09-23T06:35:33.355Z,2441
2022-09-23T06:36:42.426Z,3207
2022-09-23T06:37:51.550Z,2269
2022-09-23T06:39:00.723Z,2473
2022-09-23T06:40:09.894Z,2232
2022-09-23T06:41:19.066Z,1754
2022-09-23T06:42:28.234Z,1793
2022-09-23T06:43:37.415Z,2265
2022-09-23T06:44:46.584Z,2509
2022-09-23T06:45:55.746Z,2444
2022-09-23T06:47:04.927Z,2436
2022-09-23T06:48:13.107Z,2925
2022-09-23T06:49:22.292Z,2560
2022-09-23T06:50:31.453Z,3435
2022-09-23T06:51:40.657Z,3020
2022-09-23T06:52:49.816Z,2924
2022-09-23T06:53:58.979Z,3096
2022-09-23T06:55:08.149Z,4121
2022-09-23T06:56:17.319Z,3052
2022-09-23T06:58:35.662Z,4127
2022-09-23T06:59:44.845Z,4508
2022-09-23T07:00:54.063Z,4434
2022-09-23T07:03:12.357Z,3926
2022-09-23T07:04:20.540Z,4251
2022-09-23T07:05:29.714Z,1966
2022-09-23T07:06:38.886Z,4196
2022-09-23T07:07:48.062Z,4072
2022-09-23T07:08:57.234Z,4973
2022-09-23T07:10:06.422Z,4631
2022-09-23T07:11:15.585Z,4176
2022-09-23T07:12:23.782Z,4211
2022-09-23T07:14:41.130Z,5246
2022-09-23T07:15:49.319Z,4971
2022-09-23T07:16:57.518Z,4997
2022-09-23T07:18:06.736Z,4057
2022-09-23T07:19:15.888Z,4331
2022-09-23T07:21:34.214Z,5892
2022-09-23T07:22:43.382Z,5086
2022-09-23T07:23:52.546Z,5705
2022-09-23T07:25:01.730Z,4518
2022-09-23T07:26:10.896Z,4654
2022-09-23T07:27:20.081Z,6859
2022-09-23T07:28:29.242Z,5021
2022-09-23T07:29:38.571Z,5978
2022-09-23T07:30:47.580Z,5230
2022-09-23T07:31:55.880Z,5311
2022-09-23T07:33:05.081Z,5815
2022-09-23T07:34:14.124Z,5344
2022-09-23T07:35:23.338Z,5572
2022-09-23T07:36:32.464Z,5866
2022-09-23T07:37:41.634Z,5560
2022-09-23T07:38:50.813Z,5811
2022-09-23T07:41:09.154Z,5637
2022-09-23T07:42:18.322Z,5988
2022-09-23T07:43:27.501Z,5963
2022-09-23T07:44:36.683Z,6128
2022-09-23T07:45:45.851Z,6121
2022-09-23T07:46:54.025Z,6432
2022-09-23T07:48:03.202Z,6391
2022-09-23T07:49:12.378Z,6681
2022-09-23T07:50:21.553Z,6332
2022-09-23T07:51:30.730Z,7409
2022-09-23T07:52:39.889Z,6398
2022-09-23T07:53:49.067Z,7832
2022-09-23T07:54:58.238Z,6130
2022-09-23T07:56:07.407Z,6739
2022-09-23T07:57:16.579Z,7256
2022-09-23T07:58:25.749Z,6942
2022-09-23T07:59:34.924Z,7939
2022-09-23T08:01:53.274Z,6353
2022-09-23T08:03:01.456Z,7538
2022-09-23T08:04:10.631Z,6456
2022-09-23T08:05:19.802Z,7816
2022-09-23T08:06:28.969Z,7256
2022-09-23T08:07:38.151Z,7664
2022-09-23T08:08:47.312Z,7859
2022-09-23T08:09:56.491Z,7090
2022-09-23T08:11:05.665Z,7977
2022-09-23T08:12:14.834Z,7371
2022-09-23T08:13:24.025Z,7817
2022-09-23T08:16:51.520Z,7664
2022-09-23T08:17:59.710Z,7513
2022-09-23T08:19:08.909Z,7394
2022-09-23T08:20:17.071Z,7008
2022-09-23T08:21:26.237Z,8259
2022-09-23T08:22:35.416Z,7714
2022-09-23T08:23:44.589Z,7782
2022-09-23T08:24:53.927Z,7034
2022-09-23T08:26:02.927Z,6864
2022-09-23T08:27:12.122Z,6893
2022-09-23T08:28:21.274Z,6641
2022-09-23T08:29:30.465Z,6614
2022-09-23T08:30:38.647Z,7394
2022-09-23T08:31:46.836Z,7103
2022-09-23T08:32:55.999Z,7031
2022-09-23T08:34:05.171Z,7861
2022-09-23T08:35:14.343Z,7710
2022-09-23T08:36:23.549Z,8785
2022-09-23T08:37:32.696Z,7370
2022-09-23T08:38:41.876Z,8224
2022-09-23T08:39:51.030Z,7788
2022-09-23T08:42:09.380Z,7572
2022-09-23T08:43:18.551Z,7831
2022-09-23T08:44:27.719Z,8014
2022-09-23T08:45:36.898Z,8613
2022-09-23T08:46:46.064Z,8386
2022-09-23T08:47:54.256Z,8825
2022-09-23T08:49:03.430Z,8863
2022-09-23T08:51:21.770Z,8173
2022-09-23T08:52:29.955Z,8270
2022-09-23T08:53:38.149Z,8239
2022-09-23T08:54:47.330Z,8325
2022-09-23T08:55:56.500Z,8073
2022-09-23T08:57:05.668Z,8266
2022-09-23T08:58:14.842Z,8056
2022-09-23T08:59:24.012Z,8036
2022-09-23T09:00:33.187Z,7993
2022-09-23T09:01:42.353Z,8091
2022-09-23T09:02:51.536Z,8090
2022-09-23T09:04:00.698Z,8154
2022-09-23T09:05:08.895Z,8071
2022-09-23T09:06:17.097Z,8156
2022-09-23T09:07:26.256Z,8090
2022-09-23T09:08:35.408Z,8086
2022-09-23T09:09:44.583Z,8090
2022-09-23T09:12:02.957Z,8013
2022-09-23T09:14:21.285Z,8008
2022-09-23T09:15:30.470Z,8014
2022-09-23T09:16:39.632Z,8099
2022-09-23T09:17:48.790Z,8159
2022-09-23T09:18:57.980Z,8134
2022-09-23T09:20:06.163Z,8105
2022-09-23T09:21:14.352Z,8252
2022-09-23T09:22:23.535Z,8239
2022-09-23T09:23:32.687Z,8244
2022-09-23T09:25:51.040Z,8363
2022-09-23T09:28:09.456Z,8415
2022-09-23T09:29:18.660Z,8444
2022-09-23T09:30:27.727Z,8526
2022-09-23T09:31:36.930Z,8356
2022-09-23T09:32:46.068Z,8639
2022-09-23T09:33:55.244Z,8807
2022-09-23T09:35:03.433Z,8771
2022-09-23T09:36:11.671Z,8706
2022-09-23T09:37:20.804Z,8822
2022-09-23T09:38:29.980Z,9007
2022-09-23T09:39:39.148Z,9049
2022-09-23T09:40:48.313Z,8968
2022-09-23T09:41:57.495Z,9098
2022-09-23T09:43:06.654Z,9147
2022-09-23T09:44:15.837Z,9068
2022-09-23T09:46:34.170Z,9233
2022-09-23T09:47:43.363Z,9488
2022-09-23T09:48:52.522Z,9583
2022-09-23T09:50:01.701Z,9631
2022-09-23T09:51:09.958Z,10140
2022-09-23T09:52:19.047Z,10202
2022-09-23T09:53:28.198Z,9823
2022-09-23T09:54:37.344Z,9709
2022-09-23T09:55:46.509Z,9709
2022-09-23T09:56:55.707Z,9712
2022-09-23T09:58:04.858Z,10015
2022-09-23T09:59:14.037Z,9987
2022-09-23T10:00:23.206Z,10582
2022-09-23T10:01:31.399Z,9929
2022-09-23T10:02:39.579Z,10238
2022-09-23T10:03:48.760Z,10629
2022-09-23T10:04:56.948Z,10107
2022-09-23T10:06:06.124Z,10300
2022-09-23T10:07:15.300Z,10129
2022-09-23T10:08:24.466Z,10457
2022-09-23T10:09:33.626Z,10588
2022-09-23T10:10:42.807Z,10657
2022-09-23T10:11:51.982Z,10564
2022-09-23T10:13:01.148Z,10620
2022-09-23T10:14:10.320Z,10116
2022-09-23T10:15:18.513Z,10038
2022-09-23T10:16:27.718Z,10066
2022-09-23T10:17:35.869Z,9631
2022-09-23T10:18:45.079Z,9841
2022-09-23T10:19:54.215Z,9783
2022-09-23T10:21:03.380Z,9729
2022-09-23T10:22:12.570Z,9906
2022-09-23T10:23:21.728Z,9945
2022-09-23T10:24:30.905Z,9972
2022-09-23T10:25:40.073Z,10034
2022-09-23T10:26:49.253Z,9972
2022-09-23T10:27:58.437Z,9896
2022-09-23T10:29:07.596Z,9946
2022-09-23T10:31:25.940Z,9745
2022-09-23T10:32:34.123Z,9791
2022-09-23T10:33:43.298Z,9576
2022-09-23T10:34:52.475Z,9870
2022-09-23T10:36:01.639Z,9840
2022-09-23T10:37:10.820Z,9872
2022-09-23T10:38:19.992Z,9824
2022-09-23T10:39:29.149Z,9861
2022-09-23T10:40:38.351Z,9792
2022-09-23T10:41:47.509Z,9785
2022-09-23T10:42:56.679Z,9800
2022-09-23T10:44:05.843Z,9791
2022-09-23T10:45:15.015Z,9767
2022-09-23T10:46:24.195Z,9773
2022-09-23T10:48:41.546Z,9691
2022-09-23T10:49:50.731Z,9568
2022-09-23T10:52:09.066Z,9615
2022-09-23T10:53:17.267Z,9568
2022-09-23T10:55:34.622Z,9487
2022-09-23T10:56:43.800Z,9481
2022-09-23T10:57:52.970Z,9447
2022-09-23T10:59:02.135Z,9520
2022-09-23T11:00:11.317Z,9400
2022-09-23T11:01:20.502Z,9319
2022-09-23T11:02:29.666Z,9268
2022-09-23T11:03:38.832Z,9324
2022-09-23T11:04:48.012Z,9294
2022-09-23T11:05:57.185Z,9412
2022-09-23T11:07:05.361Z,9443
2022-09-23T11:08:13.555Z,9583
2022-09-23T11:09:22.741Z,9702
2022-09-23T11:10:31.907Z,9740
2022-09-23T11:11:41.073Z,9745
2022-09-23T11:12:50.245Z,9827
2022-09-23T11:13:59.419Z,9895
2022-09-23T11:15:08.597Z,9986
2022-09-23T11:16:17.761Z,10094
2022-09-23T11:17:26.975Z,10197
2022-09-23T11:18:36.114Z,10346
2022-09-23T11:19:45.278Z,10430
2022-09-23T11:20:54.448Z,10611
2022-09-23T11:22:03.630Z,10796
2022-09-23T11:23:11.815Z,10775
2022-09-23T11:24:20.987Z,10928
2022-09-23T11:26:39.337Z,10993
2022-09-23T11:27:48.498Z,10874
2022-09-23T11:28:57.684Z,10912
2022-09-23T11:30:06.851Z,10934
2022-09-23T11:31:16.017Z,10981
2022-09-23T11:32:25.199Z,10869
2022-09-23T11:33:34.374Z,10729
2022-09-23T11:34:43.532Z,10740
2022-09-23T11:35:52.712Z,11203
2022-09-23T11:37:01.882Z,11536
2022-09-23T11:39:19.245Z,12307
2022-09-23T11:40:28.423Z,12228
2022-09-23T11:41:37.588Z,12860
2022-09-23T11:43:55.935Z,12897
2022-09-23T11:46:13.294Z,13416
2022-09-23T11:47:21.508Z,13614
2022-09-23T11:48:29.677Z,13792
2022-09-23T11:49:38.850Z,14413
2022-09-23T11:50:48.024Z,14346
2022-09-23T11:51:57.193Z,14494
2022-09-23T11:53:06.363Z,14430
2022-09-23T11:54:15.545Z,14340
2022-09-23T11:55:24.852Z,14795
2022-09-23T11:56:33.992Z,13931
2022-09-23T11:57:43.078Z,13834
2022-09-23T11:58:52.336Z,14347
2022-09-23T12:01:09.591Z,14312
2022-09-23T12:02:18.783Z,16035
2022-09-23T12:04:37.124Z,12896
2022-09-23T12:05:45.311Z,13398
2022-09-23T12:06:53.491Z,13752
2022-09-23T12:08:02.673Z,13624
2022-09-23T12:09:11.851Z,12549
2022-09-23T12:10:21.019Z,11868
2022-09-23T12:11:30.281Z,11559
2022-09-23T12:12:39.458Z,11029
2022-09-23T12:13:48.624Z,10398
2022-09-23T12:14:57.781Z,10452
2022-09-23T12:16:06.911Z,10155
2022-09-23T12:17:16.049Z,9795
2022-09-23T12:18:25.220Z,9292
2022-09-23T12:19:33.538Z,9133
2022-09-23T12:20:41.617Z,9125
2022-09-23T12:21:50.938Z,9620
2022-09-23T12:23:00.094Z,9694
2022-09-23T12:24:09.155Z,9931
2022-09-23T12:25:18.436Z,9987
2022-09-23T12:26:27.608Z,10129
2022-09-23T12:27:36.743Z,10230
2022-09-23T12:28:45.814Z,10177
2022-09-23T12:29:55.099Z,9932
2022-09-23T12:31:04.290Z,10283
2022-09-23T12:32:12.480Z,9707
2022-09-23T12:33:20.716Z,10060
2022-09-23T12:34:29.853Z,9834
2022-09-23T12:35:39.017Z,9470
2022-09-23T12:36:48.195Z,9719
2022-09-23T12:37:57.326Z,10000
2022-09-23T12:39:06.534Z,10021
2022-09-23T12:40:15.686Z,9744
2022-09-23T12:41:24.888Z,9465
2022-09-23T12:42:34.046Z,9337
2022-09-23T12:43:43.235Z,9306
2022-09-23T12:44:52.355Z,9356
2022-09-23T12:46:01.580Z,9442
2022-09-23T12:47:10.607Z,9486
2022-09-23T12:48:18.908Z,9360
2022-09-23T12:49:28.106Z,9353
2022-09-23T12:50:37.306Z,9442
2022-09-23T12:51:46.450Z,9189
2022-09-23T12:52:55.600Z,8991
2022-09-23T12:54:04.688Z,8845
2022-09-23T12:55:13.978Z,8238
2022-09-23T12:56:23.168Z,8750
2022-09-23T12:58:41.342Z,8947
2022-09-23T12:59:50.647Z,9734
2022-09-23T13:00:59.695Z,8992
2022-09-23T13:02:08.877Z,8295
2022-09-23T13:03:17.198Z,10021
2022-09-23T13:04:26.370Z,8913
2022-09-23T13:05:35.524Z,8558
2022-09-23T13:06:44.726Z,8285
2022-09-23T13:07:53.871Z,8183
2022-09-23T13:09:02.990Z,8907
2022-09-23T13:10:12.080Z,8974
2022-09-23T13:11:21.256Z,8813
2022-09-23T13:12:30.570Z,9408
2022-09-23T13:13:39.738Z,9756
2022-09-23T13:14:48.919Z,9799
2022-09-23T13:17:07.217Z,9582
2022-09-23T13:18:16.448Z,9092
2022-09-23T13:19:24.614Z,9276
2022-09-23T13:20:33.798Z,9207
2022-09-23T13:24:01.305Z,9155
2022-09-23T13:25:09.478Z,9192
2022-09-23T13:27:26.858Z,8573
2022-09-23T13:28:36.033Z,8542
2022-09-23T13:29:45.186Z,8185
2022-09-23T13:30:54.388Z,7901
2022-09-23T13:32:02.557Z,7868
2022-09-23T13:33:10.704Z,8104
2022-09-23T13:34:19.909Z,8189
2022-09-23T13:35:29.095Z,8317
2022-09-23T13:36:38.276Z,8390
2022-09-23T13:37:47.460Z,8416
2022-09-23T13:38:56.621Z,8635
2022-09-23T13:40:05.639Z,9123
2022-09-23T13:41:14.967Z,9783
2022-09-23T13:42:24.141Z,10314
2022-09-23T13:43:33.274Z,10543
2022-09-23T13:44:41.538Z,10105
2022-09-23T13:45:49.668Z,9376
2022-09-23T13:46:58.880Z,9661
2022-09-23T13:48:07.964Z,10846
2022-09-23T13:49:17.213Z,11679
2022-09-23T13:50:26.371Z,11790
2022-09-23T13:51:35.500Z,11822
2022-09-23T13:52:44.732Z,12622
2022-09-23T13:53:53.760Z,12195
2022-09-23T13:55:02.927Z,12797
2022-09-23T13:56:11.262Z,13795
2022-09-23T13:57:20.428Z,9808
2022-09-23T13:58:29.611Z,12927
2022-09-23T13:59:38.718Z,13521
2022-09-23T14:00:47.940Z,10219
2022-09-23T14:01:57.108Z,9229
2022-09-23T14:03:06.295Z,8942
2022-09-23T14:04:15.432Z,8692
2022-09-23T14:05:24.610Z,8986
2022-09-23T14:06:33.843Z,8387
2022-09-23T14:07:42.998Z,10801
2022-09-23T14:08:52.159Z,8483
2022-09-23T14:10:01.346Z,7947
2022-09-23T14:11:09.527Z,8047
2022-09-23T14:12:18.700Z,7609
2022-09-23T14:13:27.883Z,7156
2022-09-23T14:14:37.014Z,7087
2022-09-23T14:15:46.213Z,7034
2022-09-23T14:16:55.370Z,7011
2022-09-23T14:18:04.569Z,6905
2022-09-23T14:19:13.737Z,6816
2022-09-23T14:20:22.884Z,6661
2022-09-23T14:21:32.097Z,6362
2022-09-23T14:22:41.234Z,6164
2022-09-23T14:23:50.405Z,6284
2022-09-23T14:24:59.593Z,6158
2022-09-23T14:26:07.786Z,6472
2022-09-23T14:27:16.951Z,6463
2022-09-23T14:28:26.082Z,6736
2022-09-23T14:29:35.296Z,7290
2022-09-23T14:30:44.481Z,7482
2022-09-23T14:33:02.756Z,7155
2022-09-23T14:34:11.891Z,6899
2022-09-23T14:36:30.339Z,6486
2022-09-23T14:37:39.508Z,6276
2022-09-23T14:38:48.686Z,6188
2022-09-23T14:39:57.854Z,6192
2022-09-23T14:41:06.032Z,6671
2022-09-23T14:42:15.206Z,6793
2022-09-23T14:43:24.391Z,7301
2022-09-23T14:44:33.549Z,7375
2022-09-23T14:45:42.693Z,9116
2022-09-23T14:46:51.896Z,7974
2022-09-23T14:48:01.056Z,10257
2022-09-23T14:50:19.384Z,13027
2022-09-23T14:51:27.609Z,12076
2022-09-23T14:52:35.784Z,17650
2022-09-23T14:53:44.975Z,15520
2022-09-23T14:54:54.158Z,19444
2022-09-23T14:57:12.500Z,20189
2022-09-23T14:58:21.654Z,14650
2022-09-23T14:59:30.791Z,14154
2022-09-23T15:00:40.021Z,14185
2022-09-23T15:01:49.091Z,11514
2022-09-23T15:02:58.204Z,11953
2022-09-23T15:04:07.511Z,11666
2022-09-23T15:05:16.706Z,11126
2022-09-23T15:06:25.866Z,10706
2022-09-23T15:07:34.054Z,10096
2022-09-23T15:08:43.143Z,9315
2022-09-23T15:09:52.365Z,8480
2022-09-23T15:11:01.568Z,7688
2022-09-23T15:12:10.741Z,7063
2022-09-23T15:13:19.874Z,6706
2022-09-23T15:14:29.084Z,6495
2022-09-23T15:15:38.121Z,6380
2022-09-23T15:16:46.457Z,6282
2022-09-23T15:17:54.527Z,6128
2022-09-23T15:19:03.786Z,5843
2022-09-23T15:20:12.922Z,5565
2022-09-23T15:21:22.139Z,5351
2022-09-23T15:22:31.341Z,5284
2022-09-23T15:24:49.517Z,5056
2022-09-23T15:25:58.837Z,4870
2022-09-23T15:27:08.002Z,4749
2022-09-23T15:28:17.192Z,4606
2022-09-23T15:29:26.361Z,4499
2022-09-23T15:30:35.395Z,4440
2022-09-23T15:31:44.658Z,4462
2022-09-23T15:32:52.911Z,4548
2022-09-23T15:34:01.917Z,4534
2022-09-23T15:35:11.092Z,4452
2022-09-23T15:36:20.402Z,4362
2022-09-23T15:37:29.560Z,4284
2022-09-23T15:38:38.749Z,4154
2022-09-23T15:39:47.925Z,4092
2022-09-23T15:40:57.108Z,4031
2022-09-23T15:42:05.143Z,3987
2022-09-23T15:43:13.448Z,3922
2022-09-23T15:44:22.500Z,3814
2022-09-23T15:45:31.782Z,3686
2022-09-23T15:46:40.978Z,3560
2022-09-23T15:47:50.179Z,3408
2022-09-23T15:48:59.341Z,3231
2022-09-23T15:50:07.433Z,3082
2022-09-23T15:51:16.702Z,2940
2022-09-23T15:52:24.885Z,2842
2022-09-23T15:53:34.063Z,2749
2022-09-23T15:54:43.213Z,2690
2022-09-23T15:55:52.363Z,2603
2022-09-23T15:57:01.500Z,2558
2022-09-23T15:58:10.697Z,2449
2022-09-23T15:59:19.860Z,2337
2022-09-23T16:00:29.065Z,2226
2022-09-23T16:01:38.173Z,2129
2022-09-23T16:02:47.379Z,2039
2022-09-23T16:03:56.549Z,2004
2022-09-23T16:05:05.680Z,1956
2022-09-23T16:06:14.873Z,1901
2022-09-23T16:07:23.033Z,1843
2022-09-23T16:08:32.182Z,1848
2022-09-23T16:09:41.461Z,1837
2022-09-23T16:10:50.634Z,1829
2022-09-23T16:11:59.682Z,1779
2022-09-23T16:13:08.897Z,1766
2022-09-23T16:14:18.087Z,1731
2022-09-23T16:16:36.399Z,1617
2022-09-23T16:17:45.558Z,1583
2022-09-23T16:18:54.835Z,1522
2022-09-23T16:20:03.912Z,1466
2022-09-23T16:21:13.065Z,1414
2022-09-23T16:22:22.234Z,1358
2022-09-23T16:23:30.437Z,1321
2022-09-23T16:24:39.610Z,1267
2022-09-23T16:25:48.811Z,1243
2022-09-23T16:26:58.009Z,1220
2022-09-23T16:28:07.211Z,1193
2022-09-23T16:29:16.394Z,1186
2022-09-23T16:30:25.460Z,1180
2022-09-23T16:31:34.643Z,1153
2022-09-23T16:32:43.819Z,1126
2022-09-23T16:33:53.043Z,1108
2022-09-23T16:35:02.204Z,1102
2022-09-23T16:36:11.328Z,1091
2022-09-23T16:37:20.508Z,1072
2022-09-23T16:38:28.691Z,1044
2022-09-23T16:39:37.913Z,1007
2022-09-23T16:40:47.141Z,1008
2022-09-23T16:41:56.237Z,995
2022-09-23T16:43:05.400Z,951
2022-09-23T16:44:14.594Z,895
2022-09-23T16:45:23.788Z,856
2022-09-23T16:46:32.898Z,796
2022-09-23T16:47:42.097Z,754
2022-09-23T16:48:51.243Z,724
2022-09-23T16:50:00.550Z,682
2022-09-23T16:51:09.658Z,645
2022-09-23T16:52:18.841Z,599
2022-09-23T16:54:37.134Z,572
2022-09-23T16:56:54.515Z,511